createdAt,value
2019-01-13T00:02:01.250Z,4.50
2019-01-13T00:04:32.083Z,4.50
2019-01-13T00:07:02.382Z,4.60
2019-01-13T00:09:32.742Z,4.60
2019-01-13T00:12:02.982Z,4.60
2019-01-13T00:14:32.992Z,4.60
2019-01-13T00:17:03.372Z,4.70
2019-01-13T00:19:33.596Z,4.70
2019-01-13T00:22:04.808Z,4.80
2019-01-13T00:24:35.202Z,4.80
2019-01-13T00:27:05.344Z,4.80
2019-01-13T00:29:36.178Z,4.90
2019-01-13T00:32:06.214Z,4.90
2019-01-13T00:34:36.424Z,4.90
2019-01-13T00:37:06.922Z,4.90
2019-01-13T00:39:37.197Z,4.90
2019-01-13T00:42:07.311Z,4.90
2019-01-13T00:44:37.241Z,4.90
2019-01-13T00:47:07.265Z,5.00
2019-01-13T00:49:37.182Z,5.00
2019-01-13T00:52:07.168Z,5.00
2019-01-13T00:54:37.523Z,5.00
2019-01-13T00:57:07.803Z,5.10
2019-01-13T00:59:38.073Z,5.00
2019-01-13T01:02:08.649Z,5.00
2019-01-13T01:04:38.798Z,5.00
2019-01-13T01:07:08.891Z,4.90
2019-01-13T01:09:39.179Z,4.90
2019-01-13T01:12:09.298Z,4.80
2019-01-13T01:14:39.447Z,4.70
2019-01-13T01:17:09.727Z,4.70
2019-01-13T01:19:40.134Z,4.60
2019-01-13T01:22:11.584Z,4.60
2019-01-13T01:24:41.904Z,4.50
2019-01-13T01:27:13.867Z,4.50
2019-01-13T01:29:44.579Z,4.50
2019-01-13T01:32:16.644Z,4.50
2019-01-13T01:34:48.754Z,4.40
2019-01-13T01:37:19.758Z,4.40
2019-01-13T01:39:49.710Z,4.30
2019-01-13T01:42:20.832Z,4.30
2019-01-13T01:44:50.869Z,4.30
2019-01-13T01:47:21.746Z,4.20
2019-01-13T01:49:52.042Z,4.20
2019-01-13T01:52:23.392Z,4.20
2019-01-13T01:54:53.478Z,4.10
2019-01-13T01:57:25.241Z,4.00
2019-01-13T01:59:55.501Z,3.90
2019-01-13T02:02:26.420Z,3.80
2019-01-13T02:04:56.618Z,3.80
2019-01-13T02:07:26.725Z,3.70
2019-01-13T02:09:56.862Z,3.60
2019-01-13T02:12:27.301Z,3.50
2019-01-13T02:14:57.538Z,3.50
2019-01-13T02:17:27.864Z,3.40
2019-01-13T02:19:58.675Z,3.50
2019-01-13T02:22:29.727Z,3.50
2019-01-13T02:25:21.053Z,3.70
2019-01-13T02:27:51.271Z,3.80
2019-01-13T02:30:22.947Z,3.90
2019-01-13T02:32:53.744Z,4.00
2019-01-13T02:35:24.075Z,4.00
2019-01-13T02:37:54.806Z,4.10
2019-01-13T02:40:24.922Z,4.20
2019-01-13T02:42:55.523Z,4.30
2019-01-13T02:45:28.233Z,4.40
2019-01-13T02:47:58.279Z,4.50
2019-01-13T02:50:29.330Z,4.50
2019-01-13T02:52:59.625Z,4.50
2019-01-13T02:55:29.923Z,4.50
2019-01-13T02:58:01.674Z,4.50
2019-01-13T03:00:32.028Z,4.50
2019-01-13T03:03:02.190Z,4.50
2019-01-13T03:05:32.475Z,4.50
2019-01-13T03:08:02.659Z,4.60
2019-01-13T03:10:33.089Z,4.50
2019-01-13T03:13:03.290Z,4.50
2019-01-13T03:15:34.033Z,4.50
2019-01-13T03:18:04.317Z,4.40
2019-01-13T03:20:34.859Z,4.50
2019-01-13T03:23:05.373Z,4.50
2019-01-13T03:25:35.890Z,4.50
2019-01-13T03:28:07.769Z,4.50
2019-01-13T03:30:37.980Z,4.50
2019-01-13T03:33:08.007Z,4.60
2019-01-13T03:35:38.597Z,4.60
2019-01-13T03:38:09.085Z,4.70
2019-01-13T03:40:39.474Z,4.70
2019-01-13T03:43:09.870Z,4.80
2019-01-13T03:45:40.433Z,4.80
2019-01-13T03:48:10.922Z,4.90
2019-01-13T03:50:41.758Z,4.90
2019-01-13T03:53:12.429Z,4.90
2019-01-13T03:55:43.020Z,5.00
2019-01-13T03:58:13.415Z,5.00
2019-01-13T04:00:43.507Z,5.00
2019-01-13T04:03:15.436Z,5.10
2019-01-13T04:05:46.140Z,5.10
2019-01-13T04:08:16.230Z,5.10
2019-01-13T04:10:47.062Z,5.10
2019-01-13T04:13:17.375Z,5.10
2019-01-13T04:15:55.143Z,5.20
2019-01-13T04:18:25.532Z,5.20
2019-01-13T04:20:56.070Z,5.20
2019-01-13T04:23:26.778Z,5.20
2019-01-13T04:25:57.118Z,5.20
2019-01-13T04:28:28.063Z,5.20
2019-01-13T04:30:58.247Z,5.10
2019-01-13T04:33:28.539Z,5.10
2019-01-13T04:35:58.766Z,5.10
2019-01-13T04:38:29.243Z,5.20
2019-01-13T04:40:59.670Z,5.20
2019-01-13T04:43:30.399Z,5.30
2019-01-13T04:46:00.780Z,5.40
2019-01-13T04:48:31.150Z,5.40
2019-01-13T04:51:01.541Z,5.50
2019-01-13T04:53:32.169Z,5.50
2019-01-13T04:56:02.500Z,5.50
2019-01-13T04:58:32.898Z,5.60
2019-01-13T05:01:03.478Z,5.60
2019-01-13T05:03:33.582Z,5.60
2019-01-13T05:06:04.486Z,5.70
2019-01-13T05:08:34.869Z,5.70
2019-01-13T05:11:06.347Z,5.70
2019-01-13T05:13:36.607Z,5.70
2019-01-13T05:16:06.671Z,5.70
2019-01-13T05:18:37.016Z,5.80
2019-01-13T05:21:07.431Z,5.80
2019-01-13T05:23:37.528Z,5.80
2019-01-13T05:26:07.711Z,5.80
2019-01-13T05:28:39.540Z,5.80
2019-01-13T05:31:09.657Z,5.80
2019-01-13T05:33:39.669Z,5.80
2019-01-13T05:36:10.149Z,5.90
2019-01-13T05:38:40.862Z,5.90
2019-01-13T05:41:11.124Z,5.90
2019-01-13T05:43:41.196Z,5.90
2019-01-13T05:46:11.266Z,5.90
2019-01-13T05:48:41.351Z,5.90
2019-01-13T05:51:11.344Z,5.90
2019-01-13T05:53:41.577Z,6.00
2019-01-13T05:56:12.677Z,6.00
2019-01-13T05:58:42.850Z,6.00
2019-01-13T06:01:13.387Z,6.00
2019-01-13T06:03:43.921Z,6.00
2019-01-13T06:06:14.547Z,6.00
2019-01-13T06:08:45.267Z,6.00
2019-01-13T06:11:15.402Z,6.00
2019-01-13T06:13:45.649Z,6.00
2019-01-13T06:16:16.149Z,6.00
2019-01-13T06:18:46.176Z,6.00
2019-01-13T06:21:16.619Z,6.00
2019-01-13T06:23:46.959Z,6.00
2019-01-13T06:26:17.331Z,6.00
2019-01-13T06:28:48.100Z,6.00
2019-01-13T06:31:18.333Z,6.00
2019-01-13T06:33:48.850Z,6.00
2019-01-13T06:36:18.933Z,6.10
2019-01-13T06:38:50.033Z,6.10
2019-01-13T06:41:20.169Z,6.10
2019-01-13T06:43:50.263Z,6.10
2019-01-13T06:46:20.456Z,6.10
2019-01-13T06:48:50.438Z,6.10
2019-01-13T06:51:21.191Z,6.10
2019-01-13T06:53:52.081Z,6.10
2019-01-13T06:56:22.859Z,6.10
2019-01-13T06:58:53.193Z,6.10
2019-01-13T07:01:23.472Z,6.10
2019-01-13T07:03:53.740Z,6.10
2019-01-13T07:06:24.048Z,6.20
2019-01-13T07:08:54.798Z,6.20
2019-01-13T07:11:25.901Z,6.20
2019-01-13T07:13:56.493Z,6.20
2019-01-13T07:16:27.081Z,6.20
2019-01-13T07:18:57.485Z,6.20
2019-01-13T07:21:27.997Z,6.20
2019-01-13T07:23:58.260Z,6.20
2019-01-13T07:26:28.589Z,6.20
2019-01-13T07:28:58.906Z,6.20
2019-01-13T07:31:29.341Z,6.20
2019-01-13T07:33:59.689Z,6.20
2019-01-13T07:36:30.307Z,6.20
2019-01-13T07:39:04.611Z,6.20
2019-01-13T07:41:35.138Z,6.20
2019-01-13T07:44:05.692Z,6.20
2019-01-13T07:46:36.069Z,6.20
2019-01-13T07:49:06.832Z,6.20
2019-01-13T07:51:37.256Z,6.30
2019-01-13T07:54:08.132Z,6.20
2019-01-13T07:56:38.658Z,6.20
2019-01-13T07:59:08.959Z,6.30
2019-01-13T08:01:39.676Z,6.30
2019-01-13T08:04:10.450Z,6.30
2019-01-13T08:06:40.801Z,6.30
2019-01-13T08:09:11.471Z,6.30
2019-01-13T08:11:42.117Z,6.30
2019-01-13T08:14:12.533Z,6.40
2019-01-13T08:16:43.018Z,6.40
2019-01-13T08:19:13.285Z,6.40
2019-01-13T08:21:44.139Z,6.40
2019-01-13T08:24:14.575Z,6.50
2019-01-13T08:26:44.831Z,6.40
2019-01-13T08:29:14.940Z,6.40
2019-01-13T08:31:45.588Z,6.50
2019-01-13T08:34:15.892Z,6.50
2019-01-13T08:36:46.498Z,6.50
2019-01-13T08:39:16.970Z,6.50
2019-01-13T08:41:47.383Z,6.50
2019-01-13T08:44:18.147Z,6.50
2019-01-13T08:46:48.740Z,6.50
2019-01-13T08:49:19.034Z,6.60
2019-01-13T08:51:49.434Z,6.60
2019-01-13T08:54:19.685Z,6.60
2019-01-13T08:56:50.450Z,6.60
2019-01-13T08:59:20.895Z,6.60
2019-01-13T09:01:51.628Z,6.60
2019-01-13T09:04:21.636Z,6.60
2019-01-13T09:06:51.866Z,6.70
2019-01-13T09:09:22.000Z,6.70
2019-01-13T09:11:52.328Z,6.70
2019-01-13T09:14:23.013Z,6.70
2019-01-13T09:16:53.317Z,6.80
2019-01-13T09:19:23.940Z,6.80
2019-01-13T09:21:54.387Z,6.80
2019-01-13T09:24:24.510Z,6.80
2019-01-13T09:26:54.727Z,6.80
2019-01-13T09:29:25.207Z,6.80
2019-01-13T09:31:55.709Z,6.90
2019-01-13T09:34:26.042Z,6.90
2019-01-13T09:36:57.738Z,7.00
2019-01-13T09:39:28.094Z,7.00
2019-01-13T09:41:58.624Z,7.00
2019-01-13T09:44:28.630Z,7.00
2019-01-13T09:46:58.708Z,7.00
2019-01-13T09:49:29.027Z,7.10
2019-01-13T09:51:59.338Z,7.10
2019-01-13T09:54:31.187Z,7.10
2019-01-13T09:57:01.540Z,7.10
2019-01-13T09:59:31.718Z,7.10
2019-01-13T10:02:01.919Z,7.20
2019-01-13T10:04:31.990Z,7.20
2019-01-13T10:07:02.268Z,7.30
2019-01-13T10:09:32.559Z,7.30
2019-01-13T10:12:05.678Z,7.30
2019-01-13T10:14:36.110Z,7.30
2019-01-13T10:17:06.622Z,7.30
2019-01-13T10:19:36.861Z,7.30
2019-01-13T10:22:07.275Z,7.40
2019-01-13T10:24:37.537Z,7.40
2019-01-13T10:27:07.844Z,7.40
2019-01-13T10:29:37.855Z,7.40
2019-01-13T10:32:08.699Z,7.40
2019-01-13T10:34:39.551Z,7.40
2019-01-13T10:37:11.522Z,7.40
2019-01-13T10:39:42.031Z,7.50
2019-01-13T10:42:13.122Z,7.50
2019-01-13T10:44:46.650Z,7.50
2019-01-13T10:47:16.806Z,7.50
2019-01-13T10:49:47.073Z,7.50
2019-01-13T10:52:17.147Z,7.50
2019-01-13T10:54:47.701Z,7.50
2019-01-13T10:57:18.115Z,7.60
2019-01-13T10:59:48.478Z,7.60
2019-01-13T11:02:18.544Z,7.70
2019-01-13T11:04:48.617Z,7.70
2019-01-13T11:07:18.793Z,7.80
2019-01-13T11:09:49.548Z,7.80
2019-01-13T11:12:19.926Z,7.80
2019-01-13T11:14:50.017Z,7.90
2019-01-13T11:17:20.777Z,7.90
2019-01-13T11:19:51.907Z,7.90
2019-01-13T11:22:21.877Z,7.80
2019-01-13T11:24:52.523Z,7.80
2019-01-13T11:27:23.327Z,7.90
2019-01-13T11:29:54.216Z,7.90
2019-01-13T11:32:24.342Z,8.00
2019-01-13T11:34:54.971Z,8.10
2019-01-13T11:37:25.184Z,8.10
2019-01-13T11:39:55.627Z,8.10
2019-01-13T11:42:25.737Z,8.20
2019-01-13T11:44:55.904Z,8.30
2019-01-13T11:47:26.699Z,8.30
2019-01-13T11:49:56.838Z,8.40
2019-01-13T11:52:26.775Z,8.40
2019-01-13T11:54:56.730Z,8.50
2019-01-13T11:57:32.584Z,8.50
2019-01-13T12:00:05.449Z,8.50
2019-01-13T12:02:35.446Z,8.60
2019-01-13T12:05:06.898Z,8.60
2019-01-13T12:07:36.985Z,8.60
2019-01-13T12:10:09.640Z,8.60
2019-01-13T12:12:40.006Z,8.70
2019-01-13T12:15:12.614Z,8.70
2019-01-13T12:17:43.090Z,8.70
2019-01-13T12:20:16.027Z,8.70
2019-01-13T12:22:46.204Z,8.70
2019-01-13T12:25:18.287Z,8.70
2019-01-13T12:27:48.730Z,8.70
2019-01-13T12:30:22.349Z,8.70
2019-01-13T12:32:52.682Z,8.60
2019-01-13T12:35:22.887Z,8.60
2019-01-13T12:37:53.424Z,8.50
2019-01-13T12:40:24.440Z,8.50
2019-01-13T12:42:54.628Z,8.60
2019-01-13T12:45:25.490Z,8.60
2019-01-13T12:47:56.084Z,8.60
2019-01-13T12:50:30.651Z,8.60
2019-01-13T12:53:00.924Z,8.60
2019-01-13T12:55:30.949Z,8.60
2019-01-13T12:58:01.048Z,8.60
2019-01-13T13:00:31.390Z,8.60
2019-01-13T13:03:01.477Z,8.70
2019-01-13T13:05:32.251Z,8.70
2019-01-13T13:08:02.439Z,8.80
2019-01-13T13:10:41.013Z,8.90
2019-01-13T13:13:11.435Z,8.90
2019-01-13T13:15:41.765Z,9.00
2019-01-13T13:18:12.470Z,9.00
2019-01-13T13:20:42.652Z,9.00
2019-01-13T13:23:13.079Z,9.00
2019-01-13T13:25:43.149Z,8.90
2019-01-13T13:28:13.408Z,8.90
2019-01-13T13:30:43.712Z,8.90
2019-01-13T13:33:13.868Z,8.90
2019-01-13T13:35:44.433Z,8.90
2019-01-13T13:38:14.706Z,8.80
2019-01-13T13:40:45.269Z,8.90
2019-01-13T13:43:15.286Z,8.90
2019-01-13T13:45:45.432Z,8.90
2019-01-13T13:48:15.810Z,8.90
2019-01-13T13:50:45.879Z,8.90
2019-01-13T13:53:16.111Z,8.90
2019-01-13T13:55:46.203Z,8.90
2019-01-13T13:58:16.754Z,8.80
2019-01-13T14:00:47.377Z,8.90
2019-01-13T14:03:18.034Z,8.90
2019-01-13T14:05:48.817Z,8.90
2019-01-13T14:08:19.111Z,8.90
2019-01-13T14:10:49.114Z,8.80
2019-01-13T14:13:19.668Z,8.80
2019-01-13T14:15:49.932Z,8.80
2019-01-13T14:18:19.970Z,8.80
2019-01-13T14:20:53.324Z,8.80
2019-01-13T14:23:23.289Z,8.80
2019-01-13T14:25:53.365Z,8.70
2019-01-13T14:28:23.375Z,8.80
2019-01-13T14:30:53.679Z,8.70
2019-01-13T14:33:24.000Z,8.70
2019-01-13T14:35:55.221Z,8.70
2019-01-13T14:38:25.339Z,8.70
2019-01-13T14:40:55.484Z,8.70
2019-01-13T14:43:25.817Z,8.60
2019-01-13T14:45:55.756Z,8.60
2019-01-13T14:48:25.670Z,8.60
2019-01-13T14:50:55.910Z,8.60
2019-01-13T14:53:31.244Z,8.60
2019-01-13T14:56:01.794Z,8.60
2019-01-13T14:58:31.984Z,8.60
2019-01-13T15:01:02.034Z,8.60
2019-01-13T15:03:32.265Z,8.60
2019-01-13T15:06:10.230Z,8.60
2019-01-13T15:08:41.083Z,8.60
2019-01-13T15:11:11.514Z,8.60
2019-01-13T15:13:41.860Z,8.60
2019-01-13T15:16:11.948Z,8.50
2019-01-13T15:18:42.054Z,8.50
2019-01-13T15:21:12.121Z,8.50
2019-01-13T15:23:42.569Z,8.50
2019-01-13T15:26:12.946Z,8.40
2019-01-13T15:28:43.741Z,8.40
2019-01-13T15:31:13.952Z,8.40
2019-01-13T15:33:44.488Z,8.40
2019-01-13T15:36:14.666Z,8.40
2019-01-13T15:38:45.924Z,8.40
2019-01-13T15:41:16.228Z,8.40
2019-01-13T15:43:47.440Z,8.40
2019-01-13T15:46:17.764Z,8.40
2019-01-13T15:48:48.147Z,8.40
2019-01-13T15:51:18.257Z,8.40
2019-01-13T15:53:49.146Z,8.40
2019-01-13T15:56:19.751Z,8.50
2019-01-13T15:58:53.731Z,8.50
2019-01-13T16:01:24.009Z,8.50
2019-01-13T16:03:54.067Z,8.40
2019-01-13T16:06:24.208Z,8.40
2019-01-13T16:08:54.436Z,8.40
2019-01-13T16:11:24.633Z,8.50
2019-01-13T16:13:54.754Z,8.50
2019-01-13T16:16:24.790Z,8.50
2019-01-13T16:18:55.564Z,8.50
2019-01-13T16:21:25.793Z,8.50
2019-01-13T16:23:56.130Z,8.50
2019-01-13T16:26:26.337Z,8.50
2019-01-13T16:28:56.397Z,8.50
2019-01-13T16:31:26.536Z,8.40
2019-01-13T16:33:56.836Z,8.40
2019-01-13T16:36:27.265Z,8.50
2019-01-13T16:38:57.732Z,8.50
2019-01-13T16:41:28.170Z,8.40
2019-01-13T16:43:58.931Z,8.40
2019-01-13T16:46:29.891Z,8.40
2019-01-13T16:49:00.216Z,8.40
2019-01-13T16:51:30.386Z,8.30
2019-01-13T16:54:01.088Z,8.30
2019-01-13T16:56:30.996Z,8.30
2019-01-13T16:59:00.986Z,8.30
2019-01-13T17:01:31.112Z,8.30
2019-01-13T17:04:03.229Z,8.30
2019-01-13T17:06:33.368Z,8.30
2019-01-13T17:09:08.596Z,8.30
2019-01-13T17:11:38.636Z,8.40
2019-01-13T17:14:08.671Z,8.40
2019-01-13T17:16:38.852Z,8.50
2019-01-13T17:19:08.899Z,8.50
2019-01-13T17:21:39.497Z,8.60
2019-01-13T17:24:09.740Z,8.60
2019-01-13T17:26:40.671Z,8.60
2019-01-13T17:29:10.884Z,8.70
2019-01-13T17:31:44.565Z,8.70
2019-01-13T17:34:14.616Z,8.70
2019-01-13T17:36:45.083Z,8.80
2019-01-13T17:39:15.284Z,8.80
2019-01-13T17:41:46.211Z,8.80
2019-01-13T17:44:16.311Z,8.80
2019-01-13T17:46:46.366Z,8.80
2019-01-13T17:49:16.893Z,8.80
2019-01-13T17:51:47.022Z,8.80
2019-01-13T17:54:17.162Z,8.80
2019-01-13T17:56:47.549Z,8.80
2019-01-13T17:59:17.787Z,8.70
2019-01-13T18:01:52.185Z,8.70
2019-01-13T18:04:22.616Z,8.70
2019-01-13T18:06:52.706Z,8.70
2019-01-13T18:09:22.971Z,8.70
2019-01-13T18:11:53.363Z,8.70
2019-01-13T18:14:24.076Z,8.60
2019-01-13T18:16:54.865Z,8.50
2019-01-13T18:19:25.271Z,8.30
2019-01-13T18:21:55.790Z,8.20
2019-01-13T18:24:26.908Z,8.20
2019-01-13T18:26:56.879Z,8.30
2019-01-13T18:29:27.378Z,8.30
2019-01-13T18:31:58.108Z,8.30
2019-01-13T18:34:28.292Z,8.40
2019-01-13T18:36:59.525Z,8.40
2019-01-13T18:39:33.168Z,8.40
2019-01-13T18:42:03.826Z,8.40
2019-01-13T18:44:36.927Z,8.40
2019-01-13T18:47:07.477Z,8.40
2019-01-13T18:49:39.672Z,8.40
2019-01-13T18:52:09.835Z,8.20
2019-01-13T18:54:40.513Z,8.10
2019-01-13T18:57:10.568Z,8.00
2019-01-13T18:59:41.956Z,7.90
2019-01-13T19:02:12.160Z,7.80
2019-01-13T19:04:43.351Z,7.80
2019-01-13T19:07:13.804Z,7.80
2019-01-13T19:09:47.990Z,7.90
2019-01-13T19:12:18.515Z,8.00
2019-01-13T19:14:52.799Z,8.20
2019-01-13T19:17:25.437Z,8.20
2019-01-13T19:20:00.931Z,8.20
2019-01-13T19:22:33.125Z,8.20
2019-01-13T19:25:08.458Z,8.10
2019-01-13T19:27:38.503Z,8.10
2019-01-13T19:30:11.363Z,8.00
2019-01-13T19:32:41.410Z,8.00
2019-01-13T19:35:12.560Z,7.90
2019-01-13T19:37:42.862Z,7.90
2019-01-13T19:40:14.644Z,7.90
2019-01-13T19:42:45.256Z,7.90
2019-01-13T19:45:17.619Z,8.00
2019-01-13T19:47:48.106Z,8.00
2019-01-13T19:50:20.930Z,7.90
2019-01-13T19:52:52.258Z,8.00
2019-01-13T19:55:23.010Z,7.90
2019-01-13T19:58:04.234Z,7.90
2019-01-13T20:04:02.357Z,7.40
2019-01-13T20:06:38.656Z,7.20
2019-01-13T20:09:12.242Z,6.90
2019-01-13T20:11:42.916Z,6.80
2019-01-13T20:14:13.254Z,6.60
2019-01-13T20:16:43.503Z,6.40
2019-01-13T20:19:13.492Z,6.30
2019-01-13T20:21:43.875Z,6.20
2019-01-13T20:24:15.358Z,6.20
2019-01-13T20:26:46.511Z,6.10
2019-01-13T20:29:16.752Z,6.00
2019-01-13T20:31:48.048Z,6.00
2019-01-13T20:34:21.044Z,5.90
2019-01-13T20:36:50.787Z,5.80
2019-01-13T20:39:21.236Z,5.80
2019-01-13T20:41:52.004Z,5.80
2019-01-13T20:44:22.042Z,5.70
2019-01-13T20:46:52.277Z,5.70
2019-01-13T20:49:22.343Z,5.60
2019-01-13T20:51:53.068Z,5.60
2019-01-13T20:54:23.554Z,5.70
2019-01-13T20:56:54.161Z,5.60
2019-01-13T20:59:24.482Z,5.60
2019-01-13T21:01:54.890Z,5.50
2019-01-13T21:04:25.248Z,5.60
2019-01-13T21:06:55.226Z,5.40
2019-01-13T21:09:25.516Z,5.30
2019-01-13T21:11:56.064Z,5.20
2019-01-13T21:14:26.469Z,5.20
2019-01-13T21:16:57.087Z,5.20
2019-01-13T21:19:27.360Z,5.30
2019-01-13T21:21:58.031Z,5.30
2019-01-13T21:24:28.893Z,5.30
2019-01-13T21:26:59.545Z,5.40
2019-01-13T21:29:30.742Z,5.40
2019-01-13T21:32:01.676Z,5.30
2019-01-13T21:34:31.844Z,5.30
2019-01-13T21:37:02.208Z,5.30
2019-01-13T21:39:32.572Z,5.30
2019-01-13T21:42:02.771Z,5.50
2019-01-13T21:44:32.898Z,5.50
2019-01-13T21:47:03.654Z,5.50
2019-01-13T21:49:33.939Z,5.60
2019-01-13T21:52:04.246Z,5.70
2019-01-13T21:54:34.366Z,5.70
2019-01-13T21:57:07.888Z,5.60
2019-01-13T21:59:38.109Z,5.50
2019-01-13T22:02:08.233Z,5.50
2019-01-13T22:04:38.530Z,5.40
2019-01-13T22:07:08.744Z,5.40
2019-01-13T22:09:38.974Z,5.40
2019-01-13T22:12:09.420Z,5.40
2019-01-13T22:14:39.770Z,5.40
2019-01-13T22:17:10.238Z,5.40
2019-01-13T22:19:40.613Z,5.60
2019-01-13T22:22:10.816Z,5.60
2019-01-13T22:24:41.244Z,5.80
2019-01-13T22:27:11.873Z,5.90
2019-01-13T22:29:42.525Z,5.80
2019-01-13T22:32:12.899Z,5.70
2019-01-13T22:34:43.924Z,5.60
2019-01-13T22:37:15.483Z,5.60
2019-01-13T22:39:48.776Z,5.60
2019-01-13T22:42:18.804Z,5.80
2019-01-13T22:44:49.691Z,5.80
2019-01-13T22:47:21.245Z,5.80
2019-01-13T22:49:51.514Z,5.80
2019-01-13T22:52:21.761Z,5.90
2019-01-13T22:54:54.304Z,5.80
2019-01-13T22:57:24.376Z,5.80
2019-01-13T22:59:54.334Z,5.80
2019-01-13T23:02:24.801Z,5.80
2019-01-13T23:04:55.445Z,5.80
2019-01-13T23:07:26.432Z,5.70
2019-01-13T23:09:57.057Z,5.70
2019-01-13T23:12:27.383Z,5.60
2019-01-13T23:14:57.650Z,5.50
2019-01-13T23:17:27.818Z,5.50
2019-01-13T23:19:58.303Z,5.40
2019-01-13T23:22:28.510Z,5.30
2019-01-13T23:24:58.579Z,5.20
2019-01-13T23:27:28.590Z,5.10
2019-01-13T23:29:59.331Z,5.00
2019-01-13T23:32:29.904Z,4.90
2019-01-13T23:35:00.174Z,4.90
2019-01-13T23:37:30.842Z,4.90
2019-01-13T23:40:01.029Z,4.90
2019-01-13T23:42:31.110Z,4.90
2019-01-13T23:45:01.094Z,4.90
2019-01-13T23:47:31.925Z,4.90
2019-01-13T23:50:01.947Z,4.90
2019-01-13T23:52:32.350Z,4.90
2019-01-13T23:55:02.375Z,5.00
2019-01-13T23:57:34.255Z,5.10
